createdAt,value
2023-05-19T00:00:31.964Z,29.33
2023-05-19T00:05:35.387Z,31.42
2023-05-19T00:08:11.409Z,32.20
2023-05-19T00:10:41.890Z,30.27
2023-05-19T00:13:12.481Z,29.15
2023-05-19T00:15:42.870Z,42.15
2023-05-19T00:18:15.073Z,38.75
2023-05-19T00:20:45.404Z,56.03
2023-05-19T00:23:15.817Z,51.50
2023-05-19T00:25:45.737Z,37.53
2023-05-19T00:28:16.376Z,39.25
2023-05-19T00:30:46.512Z,37.25
2023-05-19T00:33:17.123Z,35.30
2023-05-19T00:35:47.386Z,34.63
2023-05-19T00:38:17.868Z,34.67
2023-05-19T00:40:50.951Z,38.50
2023-05-19T00:43:21.484Z,37.60
2023-05-19T00:45:52.060Z,37.35
2023-05-19T00:48:23.019Z,33.83
2023-05-19T00:51:05.249Z,38.15
2023-05-19T00:53:37.013Z,39.78
2023-05-19T00:56:07.239Z,36.90
2023-05-19T00:58:38.358Z,32.00
2023-05-19T01:01:15.544Z,27.90
2023-05-19T01:03:46.414Z,31.50
2023-05-19T01:06:20.441Z,27.00
2023-05-19T01:08:59.303Z,26.50
2023-05-19T01:11:32.010Z,23.15
2023-05-19T01:14:02.151Z,21.10
2023-05-19T01:17:06.569Z,28.55
2023-05-19T01:19:51.915Z,24.55
2023-05-19T01:22:50.816Z,26.90
2023-05-19T01:26:02.029Z,28.70
2023-05-19T01:28:54.826Z,32.45
2023-05-19T01:31:29.866Z,32.58
2023-05-19T01:34:01.476Z,31.27
2023-05-19T01:36:33.301Z,27.58
2023-05-19T01:39:04.472Z,31.25
2023-05-19T01:41:38.518Z,26.52
2023-05-19T01:44:12.293Z,33.25
2023-05-19T01:46:46.101Z,38.22
2023-05-19T01:49:16.773Z,39.80
2023-05-19T01:51:50.577Z,33.20
2023-05-19T01:54:21.176Z,26.58
2023-05-19T01:57:05.824Z,26.58
2023-05-19T01:59:45.565Z,33.28
2023-05-19T02:02:57.298Z,37.78
2023-05-19T02:06:00.460Z,33.97
2023-05-19T02:08:52.133Z,36.70
2023-05-19T02:11:52.715Z,37.65
2023-05-19T02:14:32.563Z,37.60
2023-05-19T02:17:03.737Z,40.75
2023-05-19T02:19:37.626Z,46.10
2023-05-19T02:22:08.731Z,41.67
2023-05-19T02:24:38.918Z,39.95
2023-05-19T02:27:09.312Z,38.15
2023-05-19T02:29:39.257Z,32.63
2023-05-19T02:32:10.108Z,33.13
2023-05-19T02:34:40.152Z,33.55
2023-05-19T02:37:10.512Z,39.83
2023-05-19T02:39:41.462Z,33.78
2023-05-19T02:42:12.009Z,49.33
2023-05-19T02:44:42.355Z,45.03
2023-05-19T02:47:12.438Z,43.22
2023-05-19T02:49:44.229Z,44.10
2023-05-19T02:52:14.274Z,40.83
2023-05-19T02:54:44.448Z,44.95
2023-05-19T02:57:14.797Z,41.95
2023-05-19T02:59:44.880Z,42.20
2023-05-19T03:02:15.276Z,45.88
2023-05-19T03:04:45.127Z,32.83
2023-05-19T03:07:16.756Z,29.38
2023-05-19T03:09:46.736Z,29.52
2023-05-19T03:12:17.186Z,36.95
2023-05-19T03:14:47.488Z,30.45
2023-05-19T03:17:17.915Z,31.20
2023-05-19T03:19:47.997Z,29.10
2023-05-19T03:22:19.859Z,39.78
2023-05-19T03:24:52.202Z,44.22
2023-05-19T03:27:23.538Z,32.83
2023-05-19T03:29:54.990Z,29.95
2023-05-19T03:32:26.855Z,65.82
2023-05-19T03:34:56.898Z,32.08
2023-05-19T03:37:28.184Z,77.40
2023-05-19T03:39:58.687Z,44.13
2023-05-19T03:42:29.177Z,41.42
2023-05-19T03:44:59.283Z,26.92
2023-05-19T03:47:29.797Z,29.90
2023-05-19T03:50:25.818Z,25.88
2023-05-19T03:53:02.852Z,38.28
2023-05-19T03:55:41.108Z,95.47
2023-05-19T03:58:11.901Z,23.45
2023-05-19T04:00:42.687Z,21.73
2023-05-19T04:03:13.305Z,20.55
2023-05-19T04:05:43.445Z,18.17
2023-05-19T04:08:14.183Z,21.73
2023-05-19T04:10:45.375Z,18.80
2023-05-19T04:13:17.123Z,23.05
2023-05-19T04:15:47.606Z,23.80
2023-05-19T04:18:17.580Z,25.40
2023-05-19T04:20:47.946Z,23.63
2023-05-19T04:23:18.062Z,24.85
2023-05-19T04:25:49.929Z,26.67
2023-05-19T04:28:20.006Z,26.20
2023-05-19T04:30:51.916Z,28.40
2023-05-19T04:33:22.653Z,26.88
2023-05-19T04:35:53.127Z,26.77
2023-05-19T04:38:23.258Z,27.98
2023-05-19T04:40:54.213Z,25.65
2023-05-19T04:43:24.230Z,24.90
2023-05-19T04:45:54.855Z,29.10
2023-05-19T04:48:25.352Z,21.88
2023-05-19T04:50:55.838Z,22.02
2023-05-19T04:53:26.863Z,25.67
2023-05-19T04:56:02.072Z,31.23
2023-05-19T04:58:34.445Z,40.05
2023-05-19T05:01:05.200Z,109.97
2023-05-19T05:03:35.778Z,25.25
2023-05-19T05:06:06.457Z,56.95
2023-05-19T05:08:36.682Z,15.95
2023-05-19T05:11:07.744Z,17.13
2023-05-19T05:13:38.290Z,15.80
2023-05-19T05:16:09.590Z,18.33
2023-05-19T05:18:41.164Z,21.85
2023-05-19T05:21:13.851Z,25.13
2023-05-19T05:23:44.343Z,24.27
2023-05-19T05:26:25.682Z,31.80
2023-05-19T05:28:58.325Z,190.23
2023-05-19T05:31:30.843Z,184.80
2023-05-19T05:34:01.809Z,40.55
2023-05-19T05:36:36.133Z,124.97
2023-05-19T05:39:06.810Z,44.17
2023-05-19T05:41:38.307Z,55.85
2023-05-19T05:44:14.235Z,76.68
2023-05-19T05:46:47.236Z,45.05
2023-05-19T05:49:17.607Z,100.68
2023-05-19T05:52:05.014Z,76.88
2023-05-19T05:54:41.277Z,211.52
2023-05-19T05:57:12.541Z,171.45
2023-05-19T05:59:43.260Z,168.25
2023-05-19T06:02:14.502Z,172.40
2023-05-19T06:04:45.233Z,103.10
2023-05-19T06:07:15.664Z,147.45
2023-05-19T06:09:47.590Z,131.00
2023-05-19T06:12:18.393Z,115.25
2023-05-19T06:14:56.182Z,23.42
2023-05-19T06:17:45.378Z,17.02
2023-05-19T06:20:15.981Z,27.85
2023-05-19T06:22:46.716Z,22.17
2023-05-19T06:25:19.211Z,18.27
2023-05-19T06:27:50.205Z,22.30
2023-05-19T06:30:20.221Z,25.52
2023-05-19T06:33:10.657Z,28.60
2023-05-19T06:35:40.797Z,24.70
2023-05-19T06:38:11.297Z,61.25
2023-05-19T06:40:41.918Z,44.72
2023-05-19T06:43:12.521Z,16.23
2023-05-19T06:46:05.474Z,15.48
2023-05-19T06:48:36.569Z,12.18
2023-05-19T06:51:07.028Z,23.10
2023-05-19T06:53:37.773Z,25.17
2023-05-19T06:56:11.223Z,24.98
2023-05-19T06:58:42.722Z,28.17
2023-05-19T07:01:13.765Z,37.10
2023-05-19T07:03:49.259Z,34.97
2023-05-19T07:06:19.323Z,29.80
2023-05-19T07:08:49.696Z,40.13
2023-05-19T07:11:21.367Z,29.88
2023-05-19T07:13:52.654Z,31.73
2023-05-19T07:16:28.608Z,66.47
2023-05-19T07:18:59.135Z,31.83
2023-05-19T07:21:29.164Z,28.25
2023-05-19T07:23:59.776Z,27.23
2023-05-19T07:26:31.306Z,24.80
2023-05-19T07:29:01.927Z,18.70
2023-05-19T07:31:32.320Z,16.65
2023-05-19T07:34:02.762Z,18.65
2023-05-19T07:36:32.889Z,21.33
2023-05-19T07:39:03.405Z,22.63
2023-05-19T07:41:34.361Z,24.20
2023-05-19T07:44:08.726Z,24.27
2023-05-19T07:46:39.270Z,30.63
2023-05-19T07:49:09.731Z,23.17
2023-05-19T07:51:39.736Z,137.27
2023-05-19T07:54:10.130Z,113.95
2023-05-19T07:56:40.128Z,88.00
2023-05-19T07:59:10.753Z,43.47
2023-05-19T08:01:40.805Z,21.48
2023-05-19T08:04:13.751Z,17.60
2023-05-19T08:06:45.475Z,16.92
2023-05-19T08:09:15.809Z,17.20
2023-05-19T08:11:46.070Z,22.27
2023-05-19T08:14:16.429Z,25.85
2023-05-19T08:16:47.519Z,25.38
2023-05-19T08:19:17.947Z,27.95
2023-05-19T08:21:49.478Z,21.58
2023-05-19T08:24:19.868Z,35.50
2023-05-19T08:26:49.817Z,145.18
2023-05-19T08:29:22.692Z,29.55
2023-05-19T08:31:54.214Z,51.20
2023-05-19T08:34:27.027Z,103.70
2023-05-19T08:37:01.803Z,58.03
2023-05-19T08:39:34.321Z,86.80
2023-05-19T08:42:04.567Z,26.35
2023-05-19T08:44:41.135Z,20.05
2023-05-19T08:47:15.047Z,25.60
2023-05-19T08:49:47.419Z,34.30
2023-05-19T08:52:17.540Z,29.25
2023-05-19T08:55:07.219Z,26.50
2023-05-19T08:57:38.493Z,22.05
2023-05-19T09:00:15.352Z,29.02
2023-05-19T09:02:55.453Z,25.15
2023-05-19T09:05:37.036Z,23.50
2023-05-19T09:08:09.953Z,37.58
2023-05-19T09:10:40.408Z,22.48
2023-05-19T09:13:10.909Z,26.55
2023-05-19T09:15:44.059Z,20.67
2023-05-19T09:18:18.629Z,19.80
2023-05-19T09:20:49.223Z,20.42
2023-05-19T09:23:19.894Z,20.42
2023-05-19T09:25:51.195Z,23.20
2023-05-19T09:28:29.253Z,24.13
2023-05-19T09:31:03.062Z,20.95
2023-05-19T09:33:35.765Z,27.33
2023-05-19T09:36:10.099Z,27.13
2023-05-19T09:38:41.743Z,28.63
2023-05-19T09:41:15.814Z,24.08
2023-05-19T09:43:55.631Z,26.55
2023-05-19T09:46:29.542Z,78.05
2023-05-19T09:49:00.014Z,40.10
2023-05-19T09:51:30.718Z,30.83
2023-05-19T09:54:00.881Z,22.38
2023-05-19T09:56:36.019Z,23.35
2023-05-19T09:59:06.520Z,24.10
2023-05-19T10:01:38.569Z,27.65
2023-05-19T10:04:09.676Z,67.13
2023-05-19T10:06:40.529Z,42.17
2023-05-19T10:09:10.628Z,42.80
2023-05-19T10:11:41.602Z,43.40
2023-05-19T10:14:12.746Z,41.00
2023-05-19T10:16:44.169Z,37.03
2023-05-19T10:19:15.611Z,30.05
2023-05-19T10:21:46.118Z,30.52
2023-05-19T10:24:16.100Z,29.98
2023-05-19T10:26:53.203Z,25.23
2023-05-19T10:29:29.016Z,23.98
2023-05-19T10:32:06.333Z,27.40
2023-05-19T10:35:13.142Z,20.17
2023-05-19T10:37:54.782Z,20.58
2023-05-19T10:40:40.432Z,45.75
2023-05-19T10:43:35.349Z,17.88
2023-05-19T10:46:07.515Z,13.85
2023-05-19T10:48:37.971Z,14.45
2023-05-19T10:51:13.281Z,14.55
2023-05-19T10:53:47.858Z,17.92
2023-05-19T10:56:36.046Z,18.67
2023-05-19T10:59:06.440Z,17.45
2023-05-19T11:01:39.433Z,20.13
2023-05-19T11:04:16.774Z,12.95
2023-05-19T11:06:52.946Z,13.32
2023-05-19T11:09:38.008Z,14.90
2023-05-19T11:12:11.946Z,13.18
2023-05-19T11:14:42.556Z,13.50
2023-05-19T11:17:17.071Z,13.38
2023-05-19T11:19:58.379Z,14.10
2023-05-19T11:22:29.605Z,15.60
2023-05-19T11:25:00.003Z,15.23
2023-05-19T11:27:34.552Z,15.02
2023-05-19T11:30:09.204Z,16.27
2023-05-19T11:32:48.467Z,17.38
2023-05-19T11:35:22.513Z,17.40
2023-05-19T11:37:56.056Z,21.60
2023-05-19T11:40:28.187Z,20.38
2023-05-19T11:42:58.408Z,22.13
2023-05-19T11:45:34.430Z,21.70
2023-05-19T11:48:04.968Z,21.10
2023-05-19T11:50:36.451Z,18.50
2023-05-19T11:53:06.765Z,16.05
2023-05-19T11:55:37.950Z,15.98
2023-05-19T11:58:07.917Z,13.38
2023-05-19T12:00:41.924Z,14.55
2023-05-19T12:03:12.043Z,13.18
2023-05-19T12:05:47.792Z,15.80
2023-05-19T12:08:21.216Z,12.32
2023-05-19T12:10:52.058Z,15.18
2023-05-19T12:13:23.837Z,12.18
2023-05-19T12:15:54.750Z,16.10
2023-05-19T12:18:24.766Z,11.60
2023-05-19T12:20:54.680Z,11.95
2023-05-19T12:23:26.198Z,11.48
2023-05-19T12:25:56.285Z,11.25
2023-05-19T12:28:26.747Z,12.40
2023-05-19T12:30:59.721Z,12.13
2023-05-19T12:33:30.122Z,13.25
2023-05-19T12:36:00.245Z,11.88
2023-05-19T12:38:30.854Z,12.38
2023-05-19T12:41:01.363Z,11.02
2023-05-19T12:43:31.884Z,11.80
2023-05-19T12:46:12.559Z,10.65
2023-05-19T12:48:47.001Z,12.15
2023-05-19T12:51:23.103Z,13.15
2023-05-19T12:53:53.728Z,13.43
2023-05-19T12:56:28.134Z,11.98
2023-05-19T12:58:58.617Z,11.57
2023-05-19T13:01:30.685Z,15.15
2023-05-19T13:04:03.997Z,15.20
2023-05-19T13:06:36.828Z,12.27
2023-05-19T13:09:08.370Z,13.70
2023-05-19T13:11:38.776Z,13.93
2023-05-19T13:14:08.735Z,15.77
2023-05-19T13:16:39.167Z,14.35
2023-05-19T13:19:23.894Z,14.90
2023-05-19T13:21:56.189Z,11.77
2023-05-19T13:24:26.498Z,14.20
2023-05-19T13:26:56.977Z,10.57
2023-05-19T13:29:26.969Z,13.40
2023-05-19T13:31:57.721Z,13.25
2023-05-19T13:36:58.656Z,15.70
2023-05-19T13:39:29.048Z,13.00
2023-05-19T13:42:00.568Z,16.77
2023-05-19T13:44:30.991Z,14.85
2023-05-19T13:47:00.857Z,17.17
2023-05-19T13:49:31.239Z,13.98
2023-05-19T13:52:01.165Z,15.68
2023-05-19T13:54:31.512Z,16.95
2023-05-19T13:57:01.915Z,17.08
2023-05-19T13:59:32.280Z,18.02
2023-05-19T14:02:03.962Z,17.17
2023-05-19T14:04:34.576Z,25.40
2023-05-19T14:07:04.540Z,22.80
2023-05-19T14:09:35.527Z,20.70
2023-05-19T14:12:07.133Z,18.50
2023-05-19T14:17:07.132Z,19.90
2023-05-19T14:19:43.264Z,23.70
2023-05-19T14:22:14.478Z,17.77
2023-05-19T14:24:44.516Z,15.85
2023-05-19T14:27:14.816Z,20.58
2023-05-19T14:29:45.020Z,16.40
2023-05-19T14:32:15.448Z,20.90
2023-05-19T14:34:45.502Z,17.85
2023-05-19T14:37:15.907Z,19.23
2023-05-19T14:39:45.944Z,17.73
2023-05-19T14:42:16.317Z,15.45
2023-05-19T14:44:46.377Z,21.02
2023-05-19T14:47:16.861Z,19.90
2023-05-19T14:49:46.973Z,18.67
2023-05-19T14:52:17.445Z,17.20
2023-05-19T14:54:47.446Z,15.88
2023-05-19T14:57:17.847Z,17.20
2023-05-19T14:59:47.847Z,18.60
2023-05-19T15:02:18.191Z,14.77
2023-05-19T15:04:48.246Z,12.75
2023-05-19T15:07:18.708Z,16.63
2023-05-19T15:09:48.751Z,14.35
2023-05-19T15:12:19.157Z,15.60
2023-05-19T15:14:49.512Z,16.73
2023-05-19T15:17:19.885Z,16.60
2023-05-19T15:19:49.936Z,17.70
2023-05-19T15:22:20.337Z,20.27
2023-05-19T15:24:50.407Z,13.85
2023-05-19T15:27:21.947Z,14.23
2023-05-19T15:29:52.057Z,13.98
2023-05-19T15:32:22.546Z,13.90
2023-05-19T15:34:52.656Z,17.92
2023-05-19T15:37:23.005Z,16.58
2023-05-19T15:39:53.067Z,16.00
2023-05-19T15:42:23.512Z,19.35
2023-05-19T15:44:53.582Z,15.68
2023-05-19T15:47:23.930Z,14.50
2023-05-19T15:49:53.958Z,16.00
2023-05-19T15:52:24.317Z,12.15
2023-05-19T15:54:56.284Z,11.85
2023-05-19T15:57:27.024Z,13.93
2023-05-19T15:59:57.015Z,13.98
2023-05-19T16:02:27.787Z,12.52
2023-05-19T16:04:57.855Z,11.98
2023-05-19T16:07:28.489Z,13.38
2023-05-19T16:09:58.601Z,13.85
2023-05-19T16:12:30.584Z,11.45
2023-05-19T16:15:00.635Z,10.57
2023-05-19T16:17:31.042Z,10.00
2023-05-19T16:20:01.820Z,12.93
2023-05-19T16:22:32.984Z,11.32
2023-05-19T16:25:02.988Z,10.30
2023-05-19T16:27:33.384Z,16.73
2023-05-19T16:30:04.360Z,10.30
2023-05-19T16:32:35.086Z,15.13
2023-05-19T16:35:05.234Z,12.35
2023-05-19T16:37:35.793Z,10.90
2023-05-19T16:40:06.158Z,13.50
2023-05-19T16:42:36.520Z,11.73
2023-05-19T16:45:06.995Z,13.13
2023-05-19T16:47:37.442Z,11.25
2023-05-19T16:50:08.042Z,14.25
2023-05-19T16:52:38.634Z,15.90
2023-05-19T16:57:40.483Z,16.88
2023-05-19T17:00:10.990Z,13.32
2023-05-19T17:02:44.322Z,12.23
2023-05-19T17:05:14.536Z,17.30
2023-05-19T17:07:44.954Z,22.20
2023-05-19T17:10:15.616Z,16.27
2023-05-19T17:12:46.111Z,15.20
2023-05-19T17:15:16.736Z,14.25
2023-05-19T17:17:47.153Z,13.38
2023-05-19T17:20:17.575Z,12.65
2023-05-19T17:22:47.931Z,13.23
2023-05-19T17:25:18.200Z,11.35
2023-05-19T17:27:48.580Z,11.77
2023-05-19T17:30:18.384Z,13.48
2023-05-19T17:32:49.251Z,12.38
2023-05-19T17:35:19.434Z,13.80
2023-05-19T17:37:49.876Z,12.13
2023-05-19T17:40:19.954Z,11.20
2023-05-19T17:42:50.377Z,11.27
2023-05-19T17:45:20.490Z,11.57
2023-05-19T17:47:50.837Z,11.85
2023-05-19T17:50:20.835Z,13.82
2023-05-19T17:52:51.425Z,11.90
2023-05-19T17:55:22.071Z,13.32
2023-05-19T17:57:52.685Z,11.35
2023-05-19T18:00:23.256Z,10.43
2023-05-19T18:02:54.117Z,12.18
2023-05-19T18:05:27.739Z,13.25
2023-05-19T18:07:58.857Z,15.00
2023-05-19T18:10:29.408Z,9.35
2023-05-19T18:12:59.751Z,12.93
2023-05-19T18:15:29.573Z,10.20
2023-05-19T18:18:00.170Z,10.55
2023-05-19T18:20:32.203Z,11.52
2023-05-19T18:23:03.793Z,14.55
2023-05-19T18:25:33.835Z,10.98
2023-05-19T18:28:03.564Z,11.45
2023-05-19T18:30:34.275Z,15.77
2023-05-19T18:33:05.032Z,14.35
2023-05-19T18:35:36.117Z,11.38
2023-05-19T18:38:06.158Z,11.13
2023-05-19T18:40:36.707Z,9.80
2023-05-19T18:43:06.821Z,15.07
2023-05-19T18:45:38.853Z,11.52
2023-05-19T18:48:09.239Z,11.70
2023-05-19T18:50:39.652Z,13.30
2023-05-19T18:53:09.645Z,13.93
2023-05-19T18:55:40.213Z,11.90
2023-05-19T18:58:10.317Z,12.88
2023-05-19T19:00:40.792Z,11.43
2023-05-19T19:03:12.778Z,12.70
2023-05-19T19:05:43.364Z,13.80
2023-05-19T19:08:13.922Z,13.27
2023-05-19T19:10:44.272Z,13.95
2023-05-19T19:13:14.636Z,12.35
2023-05-19T19:15:44.673Z,10.80
2023-05-19T19:18:15.158Z,12.90
2023-05-19T19:20:46.533Z,14.40
2023-05-19T19:23:17.551Z,10.43
2023-05-19T19:25:48.608Z,13.10
2023-05-19T19:28:18.973Z,11.60
2023-05-19T19:30:48.841Z,12.07
2023-05-19T19:33:19.244Z,13.90
2023-05-19T19:35:49.503Z,12.88
2023-05-19T19:38:19.907Z,18.10
2023-05-19T19:40:52.164Z,14.32
2023-05-19T19:43:22.552Z,17.95
2023-05-19T19:46:01.799Z,12.55
2023-05-19T19:48:32.402Z,14.40
2023-05-19T19:51:02.405Z,10.43
2023-05-19T19:53:34.759Z,12.82
2023-05-19T19:56:06.160Z,17.00
2023-05-19T19:58:36.547Z,16.25
2023-05-19T20:01:07.269Z,15.50
2023-05-19T20:03:37.871Z,17.52
2023-05-19T20:06:08.774Z,12.15
2023-05-19T20:08:39.167Z,10.98
2023-05-19T20:11:08.924Z,13.18
2023-05-19T20:13:39.280Z,12.88
2023-05-19T20:16:09.373Z,11.68
2023-05-19T20:18:40.609Z,11.77
2023-05-19T20:21:10.574Z,16.88
2023-05-19T20:23:41.779Z,23.27
2023-05-19T20:26:13.194Z,28.35
2023-05-19T20:28:44.137Z,20.17
2023-05-19T20:31:14.088Z,17.90
2023-05-19T20:33:44.509Z,13.32
2023-05-19T20:36:14.602Z,16.00
2023-05-19T20:38:44.961Z,16.02
2023-05-19T20:41:15.141Z,14.00
2023-05-19T20:43:45.628Z,16.92
2023-05-19T20:46:15.686Z,17.40
2023-05-19T20:48:46.102Z,16.52
2023-05-19T20:51:16.064Z,16.88
2023-05-19T20:53:46.617Z,18.98
2023-05-19T20:56:16.548Z,16.23
2023-05-19T20:58:47.125Z,14.05
2023-05-19T21:01:17.311Z,17.52
2023-05-19T21:03:47.794Z,17.95
2023-05-19T21:06:17.738Z,14.23
2023-05-19T21:08:48.048Z,15.13
2023-05-19T21:11:18.008Z,13.38
2023-05-19T21:13:48.378Z,17.35
2023-05-19T21:16:18.231Z,14.25
2023-05-19T21:18:48.809Z,20.67
2023-05-19T21:21:18.893Z,16.73
2023-05-19T21:23:49.553Z,26.10
2023-05-19T21:26:20.000Z,17.42
2023-05-19T21:28:50.681Z,18.80
2023-05-19T21:31:21.260Z,17.77
2023-05-19T21:33:52.176Z,16.08
2023-05-19T21:36:22.589Z,13.27
2023-05-19T21:38:53.647Z,17.30
2023-05-19T21:41:24.067Z,15.15
2023-05-19T21:43:54.657Z,15.20
2023-05-19T21:46:25.267Z,16.73
2023-05-19T21:48:56.289Z,14.93
2023-05-19T21:51:26.783Z,19.13
2023-05-19T21:53:57.900Z,18.55
2023-05-19T21:56:28.698Z,22.73
2023-05-19T21:58:59.582Z,21.05
2023-05-19T22:01:30.154Z,19.15
2023-05-19T22:04:04.136Z,19.67
2023-05-19T22:06:34.998Z,20.27
2023-05-19T22:09:08.636Z,20.95
2023-05-19T22:11:39.347Z,19.33
2023-05-19T22:14:11.840Z,30.65
2023-05-19T22:16:42.784Z,28.95
2023-05-19T22:19:14.125Z,29.30
2023-05-19T22:21:45.406Z,26.23
2023-05-19T22:24:17.543Z,23.00
2023-05-19T22:26:48.715Z,20.95
2023-05-19T22:29:20.796Z,23.15
2023-05-19T22:31:51.546Z,23.98
2023-05-19T22:34:24.001Z,18.73
2023-05-19T22:36:54.816Z,21.50
2023-05-19T22:39:25.995Z,26.20
2023-05-19T22:41:56.980Z,28.13
2023-05-19T22:44:29.351Z,31.98
2023-05-19T22:46:59.920Z,23.38
2023-05-19T22:49:32.783Z,23.17
2023-05-19T22:52:04.952Z,17.73
2023-05-19T22:54:36.201Z,20.10
2023-05-19T22:57:07.512Z,22.15
2023-05-19T22:59:41.458Z,25.85
2023-05-19T23:02:13.139Z,27.33
2023-05-19T23:04:44.683Z,22.75
2023-05-19T23:07:15.291Z,19.67
2023-05-19T23:09:46.205Z,21.98
2023-05-19T23:12:17.198Z,28.98
2023-05-19T23:14:48.977Z,20.67
2023-05-19T23:17:19.862Z,19.83
2023-05-19T23:19:51.529Z,19.70
2023-05-19T23:22:22.559Z,23.13
2023-05-19T23:24:53.649Z,18.25
2023-05-19T23:27:24.550Z,19.58
2023-05-19T23:29:55.946Z,18.92
2023-05-19T23:32:30.101Z,18.15
2023-05-19T23:35:18.429Z,18.52
2023-05-19T23:37:49.395Z,21.85
2023-05-19T23:40:22.971Z,20.63
2023-05-19T23:42:56.067Z,23.17
2023-05-19T23:45:28.458Z,29.48
2023-05-19T23:47:58.855Z,21.63
2023-05-19T23:50:29.550Z,18.00
2023-05-19T23:52:59.614Z,18.23
2023-05-19T23:55:30.127Z,21.90
2023-05-19T23:58:00.159Z,22.10
